West Lebanon, Pennsylvania
Current Conditions -  °F | °C
As of 8:35 PM on Thursday 27 Nov 2014 (Local Time) from KIDI Reporting Station
Broken Clouds Broken Clouds  
Wind Chill: -8°   Ceiling: 2800
Heat Index: -2°   Visibility: 9mi
Dew Point: -4°   Wind: 12mph
Humidity: 86%   Direction: 290°WNW
Pressure: 30.18"   Gusts: 17mph
Location:  40.6°N, 79.35°W
Report Text: KIDI 280135Z AUTO 29010G15KT 9SM FEW017 SCT024 BKN028 M02/M04 A3018 RMK A01
Loading
Personal Weather Stations






























Interactive Weather Map New forecast layout! Learn more

10-Day Weather Forecast

Advertisements
Track Severe Weather on mobile